createdAt,value
2023-04-20T00:04:18.716Z,98995.73
2023-04-20T00:09:20.520Z,98993.96
2023-04-20T00:14:22.602Z,98983.83
2023-04-20T00:19:24.410Z,98986.38
2023-04-20T00:24:26.540Z,98991.26
2023-04-20T00:29:28.438Z,98983.23
2023-04-20T00:34:32.932Z,98978.77
2023-04-20T00:39:36.103Z,98975.38
2023-04-20T00:44:38.871Z,98980.23
2023-04-20T00:49:40.876Z,98976.89
2023-04-20T00:54:45.558Z,98978.27
2023-04-20T00:59:48.009Z,98973.02
2023-04-20T01:04:50.402Z,98976.14
2023-04-20T01:09:52.716Z,98972.11
2023-04-20T01:14:54.902Z,98971.82
2023-04-20T01:19:56.694Z,98965.73
2023-04-20T01:24:59.164Z,98963.36
2023-04-20T01:30:01.924Z,98965.04
2023-04-20T01:35:05.351Z,98961.75
2023-04-20T01:40:13.017Z,98959.91
2023-04-20T01:45:15.164Z,98956.06
2023-04-20T01:50:17.049Z,98953.36
2023-04-20T01:55:20.276Z,98949.29
2023-04-20T02:00:22.763Z,98947.34
2023-04-20T02:05:25.162Z,98950.02
2023-04-20T02:10:27.021Z,98954.52
2023-04-20T02:15:29.446Z,98952.92
2023-04-20T02:20:31.401Z,98953.85
2023-04-20T02:25:33.721Z,98954.55
2023-04-20T02:30:35.920Z,98952.08
2023-04-20T02:35:39.055Z,98955.45
2023-04-20T02:40:41.018Z,98956.34
2023-04-20T02:45:43.405Z,98953.60
2023-04-20T02:50:45.894Z,98958.75
2023-04-20T02:55:56.933Z,98959.25
2023-04-20T03:01:09.968Z,98960.95
2023-04-20T03:06:12.707Z,98967.51
2023-04-20T03:11:16.160Z,98963.39
2023-04-20T03:16:18.518Z,98966.16
2023-04-20T03:21:26.701Z,98965.09
2023-04-20T03:26:29.428Z,98966.94
2023-04-20T03:31:57.643Z,98965.87
2023-04-20T03:37:00.321Z,98963.15
2023-04-20T03:42:02.204Z,98967.65
2023-04-20T03:47:04.820Z,98965.70
2023-04-20T03:52:07.391Z,98966.92
2023-04-20T03:57:10.397Z,98976.97
2023-04-20T04:02:15.974Z,98972.98
2023-04-20T04:07:20.772Z,98974.98
2023-04-20T04:12:23.220Z,98981.63
2023-04-20T04:17:26.243Z,98983.96
2023-04-20T04:22:31.557Z,98985.09
2023-04-20T04:28:12.842Z,98982.57
2023-04-20T04:33:22.042Z,98985.26
2023-04-20T04:38:25.362Z,98986.38
2023-04-20T04:43:27.573Z,98986.61
2023-04-20T04:48:41.130Z,98993.05
2023-04-20T04:53:45.242Z,98996.01
2023-04-20T04:58:47.460Z,98995.08
2023-04-20T05:03:49.665Z,98992.41
2023-04-20T05:08:52.201Z,98996.77
2023-04-20T05:13:54.726Z,98997.83
2023-04-20T05:18:57.084Z,99007.14
2023-04-20T05:23:58.988Z,99018.67
2023-04-20T05:29:01.954Z,99024.41
2023-04-20T05:34:03.955Z,99024.29
2023-04-20T05:39:06.282Z,99024.05
2023-04-20T05:44:08.203Z,99022.17
2023-04-20T05:49:10.532Z,99023.39
2023-04-20T05:54:12.637Z,99035.38
2023-04-20T05:59:16.165Z,99036.43
2023-04-20T06:04:19.015Z,99038.50
2023-04-20T06:09:21.783Z,99039.39
2023-04-20T06:14:23.781Z,99037.31
2023-04-20T06:19:25.858Z,99035.52
2023-04-20T06:24:28.105Z,99034.58
2023-04-20T06:29:30.466Z,99035.85
2023-04-20T06:34:32.728Z,99041.20
2023-04-20T06:39:35.684Z,99040.86
2023-04-20T06:44:37.517Z,99043.16
2023-04-20T06:49:39.550Z,99044.16
2023-04-20T06:54:41.324Z,99040.36
2023-04-20T06:59:43.380Z,99042.31
2023-04-20T07:04:45.472Z,99043.65
2023-04-20T07:09:47.431Z,99046.68
2023-04-20T07:14:49.354Z,99047.52
2023-04-20T07:19:52.872Z,99054.27
2023-04-20T07:24:54.907Z,99053.55
2023-04-20T07:29:58.800Z,99063.35
2023-04-20T07:35:01.048Z,99066.89
2023-04-20T07:40:06.629Z,99069.47
2023-04-20T07:45:11.150Z,99069.43
2023-04-20T07:50:13.591Z,99065.23
2023-04-20T07:55:16.742Z,99066.37
2023-04-20T08:00:19.692Z,99064.71
2023-04-20T08:05:23.080Z,99061.86
2023-04-20T08:10:25.827Z,99060.19
2023-04-20T08:15:28.088Z,99060.31
2023-04-20T08:20:30.593Z,99059.55
2023-04-20T08:25:32.686Z,99065.21
2023-04-20T08:30:35.157Z,99065.45
2023-04-20T08:35:37.417Z,99068.27
2023-04-20T08:40:40.540Z,99060.35
2023-04-20T08:45:49.345Z,99057.93
2023-04-20T08:50:51.763Z,99054.33
2023-04-20T08:55:53.675Z,99053.17
2023-04-20T09:00:55.897Z,99048.11
2023-04-20T09:05:58.059Z,99045.09
2023-04-20T09:11:00.243Z,99045.31
2023-04-20T09:16:13.622Z,99046.30
2023-04-20T09:21:18.681Z,99050.73
2023-04-20T09:26:21.153Z,99045.15
2023-04-20T09:31:24.429Z,99045.33
2023-04-20T09:36:41.273Z,99043.08
2023-04-20T09:41:44.998Z,99045.55
2023-04-20T09:46:47.272Z,99041.36
2023-04-20T09:51:50.648Z,99037.70
2023-04-20T09:56:56.115Z,99035.86
2023-04-20T10:01:58.826Z,99033.55
2023-04-20T10:07:06.121Z,99034.14
2023-04-20T10:12:10.178Z,99031.11
2023-04-20T10:17:12.220Z,99028.14
2023-04-20T10:22:30.963Z,99026.33
2023-04-20T10:27:33.271Z,99021.88
2023-04-20T10:32:35.655Z,99016.45
2023-04-20T10:37:48.853Z,99013.41
2023-04-20T10:42:50.926Z,99011.95
2023-04-20T10:47:52.810Z,99007.74
2023-04-20T10:52:54.784Z,99001.05
2023-04-20T10:57:57.064Z,99001.77
2023-04-20T11:02:59.620Z,98995.94
2023-04-20T11:08:02.047Z,98992.00
2023-04-20T11:13:04.156Z,98993.49
2023-04-20T11:18:08.214Z,98988.65
2023-04-20T11:23:11.276Z,98988.30
2023-04-20T11:28:13.101Z,98983.69
2023-04-20T11:33:16.429Z,98982.55
2023-04-20T11:38:29.805Z,98987.88
2023-04-20T11:43:32.607Z,98991.25
2023-04-20T11:48:34.522Z,98992.73
2023-04-20T11:53:37.985Z,98988.46
2023-04-20T11:58:39.765Z,98982.80
2023-04-20T12:03:43.043Z,98984.92
2023-04-20T12:08:48.055Z,98977.95
2023-04-20T12:13:50.482Z,98980.80
2023-04-20T12:18:52.370Z,98969.98
2023-04-20T12:23:54.454Z,98965.44
2023-04-20T12:28:57.756Z,98956.64
2023-04-20T12:34:00.613Z,98953.02
2023-04-20T12:39:03.668Z,98957.39
2023-04-20T12:44:07.211Z,98958.23
2023-04-20T12:49:10.585Z,98957.38
2023-04-20T12:54:12.903Z,98955.05
2023-04-20T12:59:15.667Z,98953.17
2023-04-20T13:04:18.226Z,98956.23
2023-04-20T13:09:20.978Z,98952.04
2023-04-20T13:14:25.833Z,98948.27
2023-04-20T13:19:30.227Z,98941.39
2023-04-20T13:24:32.323Z,98938.23
2023-04-20T13:29:34.645Z,98934.42
2023-04-20T13:34:37.072Z,98933.67
2023-04-20T13:39:38.977Z,98929.60
2023-04-20T13:44:41.105Z,98935.44
2023-04-20T13:49:43.212Z,98925.75
2023-04-20T13:54:45.229Z,98929.95
2023-04-20T13:59:47.110Z,98931.45
2023-04-20T14:04:49.689Z,98933.27
2023-04-20T14:09:53.952Z,98926.38
2023-04-20T14:15:00.447Z,98929.05
2023-04-20T14:20:04.471Z,98929.45
2023-04-20T14:25:07.951Z,98928.48
2023-04-20T14:30:10.428Z,98925.25
2023-04-20T14:35:12.606Z,98924.68
2023-04-20T14:40:15.643Z,98925.49
2023-04-20T14:45:17.888Z,98925.76
2023-04-20T14:50:20.243Z,98924.98
2023-04-20T14:55:26.299Z,98919.57
2023-04-20T15:00:28.451Z,98919.04
2023-04-20T15:05:30.987Z,98917.64
2023-04-20T15:10:33.129Z,98918.98
2023-04-20T15:15:47.495Z,98919.02
2023-04-20T15:20:52.704Z,98919.92
2023-04-20T15:25:55.231Z,98923.44
2023-04-20T15:30:57.128Z,98923.57
2023-04-20T15:35:59.262Z,98919.82
2023-04-20T15:41:01.099Z,98915.58
2023-04-20T15:46:03.679Z,98918.09
2023-04-20T15:51:05.967Z,98918.78
2023-04-20T15:56:08.736Z,98921.45
2023-04-20T16:01:10.776Z,98919.72
2023-04-20T16:06:13.707Z,98916.40
2023-04-20T16:11:15.814Z,98918.16
2023-04-20T16:16:19.189Z,98920.72
2023-04-20T16:21:24.755Z,98914.32
2023-04-20T16:26:26.890Z,98919.34
2023-04-20T16:31:29.684Z,98919.80
2023-04-20T16:36:38.263Z,98920.80
2023-04-20T16:41:40.222Z,98919.89
2023-04-20T16:46:43.153Z,98925.49
2023-04-20T16:51:45.985Z,98922.96
2023-04-20T16:56:48.761Z,98921.50
2023-04-20T17:01:51.250Z,98924.20
2023-04-20T17:06:54.042Z,98928.67
2023-04-20T17:11:59.154Z,98935.12
2023-04-20T17:17:02.114Z,98934.31
2023-04-20T17:22:04.749Z,98938.22
2023-04-20T17:27:06.845Z,98940.69
2023-04-20T17:32:09.388Z,98943.10
2023-04-20T17:37:12.186Z,98944.97
2023-04-20T17:42:16.581Z,98947.58
2023-04-20T17:47:18.748Z,98943.36
2023-04-20T17:52:22.412Z,98946.80
2023-04-20T17:57:24.612Z,98949.06
2023-04-20T18:02:26.554Z,98948.73
2023-04-20T18:07:28.869Z,98943.00
2023-04-20T18:12:31.401Z,98948.92
2023-04-20T18:17:33.769Z,98953.25
2023-04-20T18:22:37.118Z,98960.95
2023-04-20T18:27:39.788Z,98962.77
2023-04-20T18:32:42.059Z,98969.18
2023-04-20T18:37:44.324Z,98970.96
2023-04-20T18:42:46.341Z,98969.63
2023-04-20T18:47:48.582Z,98973.13
2023-04-20T18:52:51.427Z,98974.69
2023-04-20T18:57:53.519Z,98974.46
2023-04-20T19:02:55.769Z,98970.63
2023-04-20T19:07:58.870Z,98971.96
2023-04-20T19:13:01.261Z,98975.29
2023-04-20T19:18:04.345Z,98969.96
2023-04-20T19:23:08.682Z,98971.17
2023-04-20T19:28:12.573Z,98967.72
2023-04-20T19:33:15.089Z,98962.52
2023-04-20T19:38:19.186Z,98965.67
2023-04-20T19:43:21.357Z,98969.66
2023-04-20T19:48:23.822Z,98968.02
2023-04-20T19:53:26.370Z,98968.61
2023-04-20T19:58:30.881Z,98972.23
2023-04-20T20:03:32.868Z,98969.80
2023-04-20T20:08:35.607Z,98973.65
2023-04-20T20:13:37.443Z,98969.83
2023-04-20T20:18:41.968Z,98970.74
2023-04-20T20:23:44.009Z,98969.73
2023-04-20T20:28:46.268Z,98964.64
2023-04-20T20:33:48.113Z,98965.05
2023-04-20T20:38:53.670Z,98968.52
2023-04-20T20:43:58.164Z,98966.93
2023-04-20T20:49:01.180Z,98973.38
2023-04-20T20:54:03.750Z,98973.87
2023-04-20T20:59:06.054Z,98972.83
2023-04-20T21:04:08.230Z,98979.14
2023-04-20T21:09:10.969Z,98972.66
2023-04-20T21:14:13.487Z,98969.64
2023-04-20T21:19:16.142Z,98974.41
2023-04-20T21:24:19.299Z,98973.39
2023-04-20T21:29:21.553Z,98975.53
2023-04-20T21:34:23.872Z,98971.80
2023-04-20T21:39:25.966Z,98973.52
2023-04-20T21:44:29.917Z,98974.58
2023-04-20T21:49:34.521Z,98972.91
2023-04-20T21:54:40.943Z,98969.27
2023-04-20T21:59:43.019Z,98973.95
2023-04-20T22:04:45.795Z,98976.40
2023-04-20T22:09:47.957Z,98979.17
2023-04-20T22:14:49.872Z,98981.59
2023-04-20T22:19:52.328Z,98984.73
2023-04-20T22:24:54.718Z,98984.39
2023-04-20T22:29:56.838Z,98985.83
2023-04-20T22:34:58.791Z,98983.46
2023-04-20T22:40:00.905Z,98979.35
2023-04-20T22:45:04.246Z,98978.73
2023-04-20T22:50:09.813Z,98982.14
2023-04-20T22:55:11.981Z,98980.57
2023-04-20T23:00:14.646Z,98974.39
2023-04-20T23:05:20.457Z,98975.92
2023-04-20T23:10:28.652Z,98969.05
2023-04-20T23:15:34.256Z,98973.83
2023-04-20T23:20:39.867Z,98973.27
2023-04-20T23:25:42.067Z,98970.07
2023-04-20T23:30:44.311Z,98972.47
2023-04-20T23:35:46.312Z,98969.52
2023-04-20T23:40:50.492Z,98966.67
2023-04-20T23:45:53.686Z,98962.74
2023-04-20T23:51:02.015Z,98963.77
2023-04-20T23:56:05.262Z,98956.02
